VOCB/CJB METAR and TAF weather

Enter ICAO airport designator
Station Type Date Time Source
VOCB METAR 2019/12/07 00:00 UTC NOAA

VOCB 070000Z 00000KT 3000 BR SCT012 BKN080 22/18 Q1014 NOSIG


Station Type Date Time Source
VOCB Decoded METAR 2019/12/07 00:00 UTC NOAA

Coimbatore / Peelamedu, India (VOCB) 11-02N 077-03E 399M
Dec 06, 2019 - 07:00 PM EST / 2019.12.07 0000 UTC
Wind: Calm:0
Visibility: 1 mile(s):0
Sky conditions: mostly cloudy
Weather: mist
Temperature: 71 F (22 C)
Dew Point: 64 F (18 C)
Relative Humidity: 78%
Pressure (altimeter): 29.94 in. Hg (1014 hPa)
ob: VOCB 070000Z 00000KT 3000 BR SCT012 BKN080 22/18 Q1014 NOSIG
cycle: 0

Station Type Date Time Source
VOCB TAF 2019/12/06 21:00 UTC NOAA

TAF VOCB 062000Z 0621/0706 VRB02KT 3000 BR SCT015 BKN080
BECMG 0703/0704 05005KT 5000 HZ

Example: see airport list